sensor_id;sensor_type;location;lat;lon;timestamp;P1;durP1;ratioP1;P2;durP2;ratioP2
42096;SDS011;27754;45.414;11.084;2023-10-09T00:01:51;15.52;;;7.53;;
42096;SDS011;27754;45.414;11.084;2023-10-09T00:04:18;14.52;;;6.70;;
42096;SDS011;27754;45.414;11.084;2023-10-09T00:06:47;17.27;;;7.78;;
42096;SDS011;27754;45.414;11.084;2023-10-09T00:09:15;19.48;;;7.30;;
42096;SDS011;27754;45.414;11.084;2023-10-09T00:11:51;14.70;;;7.53;;
42096;SDS011;27754;45.414;11.084;2023-10-09T00:14:27;15.90;;;7.97;;
42096;SDS011;27754;45.414;11.084;2023-10-09T00:16:57;12.38;;;7.70;;
42096;SDS011;27754;45.414;11.084;2023-10-09T00:19:39;18.35;;;7.97;;
42096;SDS011;27754;45.414;11.084;2023-10-09T00:22:09;15.10;;;7.30;;
42096;SDS011;27754;45.414;11.084;2023-10-09T00:24:57;16.60;;;7.78;;
42096;SDS011;27754;45.414;11.084;2023-10-09T00:27:48;19.38;;;7.95;;
42096;SDS011;27754;45.414;11.084;2023-10-09T00:30:16;16.50;;;7.70;;
42096;SDS011;27754;45.414;11.084;2023-10-09T00:32:48;19.17;;;8.82;;
42096;SDS011;27754;45.414;11.084;2023-10-09T00:35:28;19.85;;;7.45;;
42096;SDS011;27754;45.414;11.084;2023-10-09T00:38:10;19.23;;;7.82;;
42096;SDS011;27754;45.414;11.084;2023-10-09T00:40:46;19.58;;;8.30;;
42096;SDS011;27754;45.414;11.084;2023-10-09T00:43:22;14.80;;;7.75;;
42096;SDS011;27754;45.414;11.084;2023-10-09T00:45:56;23.63;;;7.78;;
42096;SDS011;27754;45.414;11.084;2023-10-09T00:48:48;17.25;;;7.95;;
42096;SDS011;27754;45.414;11.084;2023-10-09T00:51:16;12.55;;;7.25;;
42096;SDS011;27754;45.414;11.084;2023-10-09T00:53:49;18.45;;;8.10;;
42096;SDS011;27754;45.414;11.084;2023-10-09T00:56:33;16.20;;;7.88;;
42096;SDS011;27754;45.414;11.084;2023-10-09T00:59:13;15.32;;;7.75;;
42096;SDS011;27754;45.414;11.084;2023-10-09T01:01:42;18.67;;;7.60;;
42096;SDS011;27754;45.414;11.084;2023-10-09T01:04:30;20.38;;;7.45;;
42096;SDS011;27754;45.414;11.084;2023-10-09T01:07:03;14.32;;;7.88;;
42096;SDS011;27754;45.414;11.084;2023-10-09T01:09:52;15.18;;;7.07;;
42096;SDS011;27754;45.414;11.084;2023-10-09T01:12:21;19.67;;;7.95;;
42096;SDS011;27754;45.414;11.084;2023-10-09T01:14:48;19.73;;;8.40;;
42096;SDS011;27754;45.414;11.084;2023-10-09T01:17:21;15.98;;;7.30;;
42096;SDS011;27754;45.414;11.084;2023-10-09T01:20:03;17.30;;;7.53;;
42096;SDS011;27754;45.414;11.084;2023-10-09T01:22:31;13.93;;;6.32;;
42096;SDS011;27754;45.414;11.084;2023-10-09T01:24:58;14.82;;;5.85;;
42096;SDS011;27754;45.414;11.084;2023-10-09T01:27:25;16.95;;;6.00;;
42096;SDS011;27754;45.414;11.084;2023-10-09T01:29:59;15.23;;;6.07;;
42096;SDS011;27754;45.414;11.084;2023-10-09T01:32:27;17.15;;;6.32;;
42096;SDS011;27754;45.414;11.084;2023-10-09T01:34:54;17.92;;;6.00;;
42096;SDS011;27754;45.414;11.084;2023-10-09T01:37:22;18.52;;;6.65;;
42096;SDS011;27754;45.414;11.084;2023-10-09T01:39:50;13.77;;;6.10;;
42096;SDS011;27754;45.414;11.084;2023-10-09T01:42:18;20.88;;;6.82;;
42096;SDS011;27754;45.414;11.084;2023-10-09T01:45:02;12.80;;;6.25;;
42096;SDS011;27754;45.414;11.084;2023-10-09T01:47:43;16.95;;;6.40;;
42096;SDS011;27754;45.414;11.084;2023-10-09T01:50:19;14.00;;;6.22;;
42096;SDS011;27754;45.414;11.084;2023-10-09T01:52:48;18.73;;;6.72;;
42096;SDS011;27754;45.414;11.084;2023-10-09T01:55:18;16.85;;;6.05;;
42096;SDS011;27754;45.414;11.084;2023-10-09T01:57:56;15.60;;;6.00;;
42096;SDS011;27754;45.414;11.084;2023-10-09T02:00:25;10.98;;;5.70;;
42096;SDS011;27754;45.414;11.084;2023-10-09T02:02:56;11.40;;;5.50;;
42096;SDS011;27754;45.414;11.084;2023-10-09T02:05:26;13.68;;;6.05;;
42096;SDS011;27754;45.414;11.084;2023-10-09T02:07:53;21.20;;;6.88;;
42096;SDS011;27754;45.414;11.084;2023-10-09T02:10:22;16.08;;;7.03;;
42096;SDS011;27754;45.414;11.084;2023-10-09T02:13:02;17.08;;;7.15;;
42096;SDS011;27754;45.414;11.084;2023-10-09T02:15:34;11.82;;;6.47;;
42096;SDS011;27754;45.414;11.084;2023-10-09T02:18:16;14.75;;;6.32;;
42096;SDS011;27754;45.414;11.084;2023-10-09T02:20:51;16.48;;;6.78;;
42096;SDS011;27754;45.414;11.084;2023-10-09T02:23:27;12.68;;;5.78;;
42096;SDS011;27754;45.414;11.084;2023-10-09T02:26:17;14.95;;;6.57;;
42096;SDS011;27754;45.414;11.084;2023-10-09T02:28:50;14.00;;;6.50;;
42096;SDS011;27754;45.414;11.084;2023-10-09T02:31:40;13.65;;;6.40;;
42096;SDS011;27754;45.414;11.084;2023-10-09T02:34:10;17.30;;;6.93;;
42096;SDS011;27754;45.414;11.084;2023-10-09T02:36:39;15.02;;;7.40;;
42096;SDS011;27754;45.414;11.084;2023-10-09T02:39:10;14.70;;;6.82;;
42096;SDS011;27754;45.414;11.084;2023-10-09T02:41:51;15.73;;;7.65;;
42096;SDS011;27754;45.414;11.084;2023-10-09T02:44:21;14.20;;;7.05;;
42096;SDS011;27754;45.414;11.084;2023-10-09T02:46:58;15.63;;;7.03;;
42096;SDS011;27754;45.414;11.084;2023-10-09T02:49:25;16.80;;;7.07;;
42096;SDS011;27754;45.414;11.084;2023-10-09T02:51:53;13.85;;;5.70;;
42096;SDS011;27754;45.414;11.084;2023-10-09T02:54:20;13.70;;;6.20;;
42096;SDS011;27754;45.414;11.084;2023-10-09T02:56:48;13.70;;;6.30;;
42096;SDS011;27754;45.414;11.084;2023-10-09T02:59:23;14.80;;;6.60;;
42096;SDS011;27754;45.414;11.084;2023-10-09T03:01:51;17.85;;;5.93;;
42096;SDS011;27754;45.414;11.084;2023-10-09T03:04:19;24.77;;;7.20;;
42096;SDS011;27754;45.414;11.084;2023-10-09T03:06:46;14.18;;;6.40;;
42096;SDS011;27754;45.414;11.084;2023-10-09T03:09:19;14.32;;;6.50;;
42096;SDS011;27754;45.414;11.084;2023-10-09T03:11:57;12.95;;;6.20;;
42096;SDS011;27754;45.414;11.084;2023-10-09T03:14:37;16.80;;;5.95;;
42096;SDS011;27754;45.414;11.084;2023-10-09T03:17:05;13.77;;;5.70;;
42096;SDS011;27754;45.414;11.084;2023-10-09T03:19:38;14.27;;;5.28;;
42096;SDS011;27754;45.414;11.084;2023-10-09T03:22:06;13.85;;;5.93;;
42096;SDS011;27754;45.414;11.084;2023-10-09T03:24:38;13.18;;;5.45;;
42096;SDS011;27754;45.414;11.084;2023-10-09T03:27:16;16.05;;;6.18;;
42096;SDS011;27754;45.414;11.084;2023-10-09T03:29:43;15.23;;;6.25;;
42096;SDS011;27754;45.414;11.084;2023-10-09T03:32:16;14.55;;;6.63;;
42096;SDS011;27754;45.414;11.084;2023-10-09T03:34:43;13.43;;;6.85;;
42096;SDS011;27754;45.414;11.084;2023-10-09T03:37:10;12.05;;;5.72;;
42096;SDS011;27754;45.414;11.084;2023-10-09T03:39:58;16.85;;;6.30;;
42096;SDS011;27754;45.414;11.084;2023-10-09T03:42:25;12.57;;;6.72;;
42096;SDS011;27754;45.414;11.084;2023-10-09T03:44:52;15.80;;;6.72;;
42096;SDS011;27754;45.414;11.084;2023-10-09T03:47:20;20.13;;;6.32;;
42096;SDS011;27754;45.414;11.084;2023-10-09T03:49:51;12.30;;;5.13;;
42096;SDS011;27754;45.414;11.084;2023-10-09T03:52:20;18.85;;;5.97;;
42096;SDS011;27754;45.414;11.084;2023-10-09T03:54:52;13.15;;;6.00;;
42096;SDS011;27754;45.414;11.084;2023-10-09T03:57:19;15.63;;;6.20;;
42096;SDS011;27754;45.414;11.084;2023-10-09T03:59:47;12.77;;;5.72;;
42096;SDS011;27754;45.414;11.084;2023-10-09T04:02:14;18.73;;;6.28;;
42096;SDS011;27754;45.414;11.084;2023-10-09T04:04:42;13.63;;;7.28;;
42096;SDS011;27754;45.414;11.084;2023-10-09T04:07:17;14.50;;;5.68;;
42096;SDS011;27754;45.414;11.084;2023-10-09T04:09:45;16.48;;;5.78;;
42096;SDS011;27754;45.414;11.084;2023-10-09T04:12:14;13.52;;;5.72;;
42096;SDS011;27754;45.414;11.084;2023-10-09T04:14:51;10.07;;;5.32;;
42096;SDS011;27754;45.414;11.084;2023-10-09T04:17:24;13.77;;;6.18;;
42096;SDS011;27754;45.414;11.084;2023-10-09T04:19:51;21.92;;;7.18;;
42096;SDS011;27754;45.414;11.084;2023-10-09T04:22:37;13.68;;;5.30;;
42096;SDS011;27754;45.414;11.084;2023-10-09T04:25:17;12.43;;;6.00;;
42096;SDS011;27754;45.414;11.084;2023-10-09T04:28:08;14.02;;;6.72;;
42096;SDS011;27754;45.414;11.084;2023-10-09T04:30:45;19.73;;;6.72;;
42096;SDS011;27754;45.414;11.084;2023-10-09T04:33:14;20.25;;;6.85;;
42096;SDS011;27754;45.414;11.084;2023-10-09T04:36:06;14.43;;;7.00;;
42096;SDS011;27754;45.414;11.084;2023-10-09T04:38:49;17.83;;;7.97;;
42096;SDS011;27754;45.414;11.084;2023-10-09T04:41:30;18.17;;;8.18;;
42096;SDS011;27754;45.414;11.084;2023-10-09T04:44:18;23.75;;;9.27;;
42096;SDS011;27754;45.414;11.084;2023-10-09T04:46:47;22.92;;;8.82;;
42096;SDS011;27754;45.414;11.084;2023-10-09T04:49:45;25.35;;;8.35;;
42096;SDS011;27754;45.414;11.084;2023-10-09T04:52:15;26.92;;;7.55;;
42096;SDS011;27754;45.414;11.084;2023-10-09T04:54:51;20.70;;;7.00;;
42096;SDS011;27754;45.414;11.084;2023-10-09T05:00:16;19.35;;;6.30;;
42096;SDS011;27754;45.414;11.084;2023-10-09T05:02:53;18.27;;;6.35;;
42096;SDS011;27754;45.414;11.084;2023-10-09T05:05:26;16.10;;;7.15;;
42096;SDS011;27754;45.414;11.084;2023-10-09T05:08:11;18.00;;;7.35;;
42096;SDS011;27754;45.414;11.084;2023-10-09T05:10:46;21.92;;;7.78;;
42096;SDS011;27754;45.414;11.084;2023-10-09T05:13:31;19.85;;;7.28;;
42096;SDS011;27754;45.414;11.084;2023-10-09T05:16:06;12.25;;;6.32;;
42096;SDS011;27754;45.414;11.084;2023-10-09T05:18:45;21.23;;;6.45;;
42096;SDS011;27754;45.414;11.084;2023-10-09T05:21:23;19.25;;;7.22;;
42096;SDS011;27754;45.414;11.084;2023-10-09T05:24:03;22.77;;;7.20;;
42096;SDS011;27754;45.414;11.084;2023-10-09T05:26:45;26.95;;;8.48;;
42096;SDS011;27754;45.414;11.084;2023-10-09T05:32:02;31.60;;;8.82;;
42096;SDS011;27754;45.414;11.084;2023-10-09T05:34:42;33.70;;;9.70;;
42096;SDS011;27754;45.414;11.084;2023-10-09T05:37:28;26.40;;;8.50;;
42096;SDS011;27754;45.414;11.084;2023-10-09T05:40:02;33.10;;;10.60;;
42096;SDS011;27754;45.414;11.084;2023-10-09T05:42:42;40.47;;;10.40;;
42096;SDS011;27754;45.414;11.084;2023-10-09T05:45:11;34.08;;;11.07;;
42096;SDS011;27754;45.414;11.084;2023-10-09T05:47:59;42.50;;;10.00;;
42096;SDS011;27754;45.414;11.084;2023-10-09T05:50:44;32.90;;;9.35;;
42096;SDS011;27754;45.414;11.084;2023-10-09T05:53:17;33.40;;;10.00;;
42096;SDS011;27754;45.414;11.084;2023-10-09T05:56:03;27.42;;;9.43;;
42096;SDS011;27754;45.414;11.084;2023-10-09T05:58:49;22.20;;;9.20;;
42096;SDS011;27754;45.414;11.084;2023-10-09T06:01:34;24.00;;;9.98;;
42096;SDS011;27754;45.414;11.084;2023-10-09T06:04:17;31.75;;;11.05;;
42096;SDS011;27754;45.414;11.084;2023-10-09T06:06:46;37.35;;;11.98;;
42096;SDS011;27754;45.414;11.084;2023-10-09T06:09:23;23.58;;;11.13;;
42096;SDS011;27754;45.414;11.084;2023-10-09T06:12:10;31.05;;;11.43;;
42096;SDS011;27754;45.414;11.084;2023-10-09T06:17:42;29.00;;;12.17;;
42096;SDS011;27754;45.414;11.084;2023-10-09T06:20:17;21.75;;;11.48;;
42096;SDS011;27754;45.414;11.084;2023-10-09T06:23:03;32.63;;;12.57;;
42096;SDS011;27754;45.414;11.084;2023-10-09T06:25:45;27.98;;;14.50;;
42096;SDS011;27754;45.414;11.084;2023-10-09T06:28:18;36.53;;;15.23;;
42096;SDS011;27754;45.414;11.084;2023-10-09T06:30:59;25.25;;;15.15;;
42096;SDS011;27754;45.414;11.084;2023-10-09T06:33:46;35.83;;;16.70;;
42096;SDS011;27754;45.414;11.084;2023-10-09T06:36:42;31.27;;;15.85;;
42096;SDS011;27754;45.414;11.084;2023-10-09T06:39:19;28.80;;;15.45;;
42096;SDS011;27754;45.414;11.084;2023-10-09T06:42:05;35.58;;;16.17;;
42096;SDS011;27754;45.414;11.084;2023-10-09T06:44:37;31.73;;;17.58;;
42096;SDS011;27754;45.414;11.084;2023-10-09T06:47:19;45.58;;;17.98;;
42096;SDS011;27754;45.414;11.084;2023-10-09T06:49:50;49.47;;;19.10;;
42096;SDS011;27754;45.414;11.084;2023-10-09T06:52:37;49.17;;;19.85;;
42096;SDS011;27754;45.414;11.084;2023-10-09T06:55:35;39.42;;;19.50;;
42096;SDS011;27754;45.414;11.084;2023-10-09T06:58:15;42.28;;;19.45;;
42096;SDS011;27754;45.414;11.084;2023-10-09T07:00:49;48.07;;;19.30;;
42096;SDS011;27754;45.414;11.084;2023-10-09T07:03:49;45.15;;;18.85;;
42096;SDS011;27754;45.414;11.084;2023-10-09T07:06:20;40.72;;;19.02;;
42096;SDS011;27754;45.414;11.084;2023-10-09T07:08:51;35.33;;;19.35;;
42096;SDS011;27754;45.414;11.084;2023-10-09T07:11:37;35.83;;;18.17;;
42096;SDS011;27754;45.414;11.084;2023-10-09T07:16:58;39.90;;;20.13;;
42096;SDS011;27754;45.414;11.084;2023-10-09T07:19:27;34.20;;;19.15;;
42096;SDS011;27754;45.414;11.084;2023-10-09T07:22:08;48.78;;;20.02;;
42096;SDS011;27754;45.414;11.084;2023-10-09T07:24:50;43.88;;;21.20;;
42096;SDS011;27754;45.414;11.084;2023-10-09T07:27:28;39.20;;;22.73;;
42096;SDS011;27754;45.414;11.084;2023-10-09T07:30:28;41.83;;;22.13;;
42096;SDS011;27754;45.414;11.084;2023-10-09T07:32:56;45.65;;;23.42;;
42096;SDS011;27754;45.414;11.084;2023-10-09T07:35:44;44.78;;;23.58;;
42096;SDS011;27754;45.414;11.084;2023-10-09T07:38:24;47.60;;;24.42;;
42096;SDS011;27754;45.414;11.084;2023-10-09T07:41:02;50.95;;;24.67;;
42096;SDS011;27754;45.414;11.084;2023-10-09T07:43:36;42.03;;;23.02;;
42096;SDS011;27754;45.414;11.084;2023-10-09T07:46:12;41.67;;;22.60;;
42096;SDS011;27754;45.414;11.084;2023-10-09T07:49:00;39.38;;;24.17;;
42096;SDS011;27754;45.414;11.084;2023-10-09T07:51:49;37.15;;;23.45;;
42096;SDS011;27754;45.414;11.084;2023-10-09T07:54:19;39.58;;;23.83;;
42096;SDS011;27754;45.414;11.084;2023-10-09T07:56:59;42.17;;;24.83;;
42096;SDS011;27754;45.414;11.084;2023-10-09T07:59:42;41.78;;;25.35;;
42096;SDS011;27754;45.414;11.084;2023-10-09T08:02:21;37.78;;;24.33;;
42096;SDS011;27754;45.414;11.084;2023-10-09T08:04:58;42.25;;;25.90;;
42096;SDS011;27754;45.414;11.084;2023-10-09T08:07:33;46.38;;;26.77;;
42096;SDS011;27754;45.414;11.084;2023-10-09T08:10:23;46.17;;;25.50;;
42096;SDS011;27754;45.414;11.084;2023-10-09T08:12:50;42.47;;;26.48;;
42096;SDS011;27754;45.414;11.084;2023-10-09T08:15:46;41.38;;;26.63;;
42096;SDS011;27754;45.414;11.084;2023-10-09T08:18:19;46.08;;;24.52;;
42096;SDS011;27754;45.414;11.084;2023-10-09T08:20:55;36.70;;;21.15;;
42096;SDS011;27754;45.414;11.084;2023-10-09T08:23:28;33.58;;;19.83;;
42096;SDS011;27754;45.414;11.084;2023-10-09T08:25:59;39.05;;;19.67;;
42096;SDS011;27754;45.414;11.084;2023-10-09T08:28:40;35.78;;;20.25;;
42096;SDS011;27754;45.414;11.084;2023-10-09T08:31:11;38.05;;;20.80;;
42096;SDS011;27754;45.414;11.084;2023-10-09T08:33:46;46.58;;;20.50;;
42096;SDS011;27754;45.414;11.084;2023-10-09T08:36:25;37.33;;;21.65;;
42096;SDS011;27754;45.414;11.084;2023-10-09T08:39:03;45.15;;;21.98;;
42096;SDS011;27754;45.414;11.084;2023-10-09T08:41:55;35.60;;;19.75;;
42096;SDS011;27754;45.414;11.084;2023-10-09T08:44:25;38.70;;;21.90;;
42096;SDS011;27754;45.414;11.084;2023-10-09T08:46:59;41.90;;;21.38;;
42096;SDS011;27754;45.414;11.084;2023-10-09T08:49:26;37.22;;;21.45;;
42096;SDS011;27754;45.414;11.084;2023-10-09T08:51:56;39.92;;;22.60;;
42096;SDS011;27754;45.414;11.084;2023-10-09T08:54:29;42.63;;;23.95;;
42096;SDS011;27754;45.414;11.084;2023-10-09T08:57:00;43.42;;;25.60;;
42096;SDS011;27754;45.414;11.084;2023-10-09T08:59:27;38.42;;;25.00;;
42096;SDS011;27754;45.414;11.084;2023-10-09T09:01:54;43.15;;;26.70;;
42096;SDS011;27754;45.414;11.084;2023-10-09T09:04:41;50.38;;;29.20;;
42096;SDS011;27754;45.414;11.084;2023-10-09T09:09:57;47.97;;;28.77;;
42096;SDS011;27754;45.414;11.084;2023-10-09T09:12:45;57.92;;;31.48;;
42096;SDS011;27754;45.414;11.084;2023-10-09T09:15:13;52.13;;;32.38;;
42096;SDS011;27754;45.414;11.084;2023-10-09T09:17:49;50.85;;;32.35;;
42096;SDS011;27754;45.414;11.084;2023-10-09T09:20:20;54.03;;;33.28;;
42096;SDS011;27754;45.414;11.084;2023-10-09T09:22:52;44.55;;;30.02;;
42096;SDS011;27754;45.414;11.084;2023-10-09T09:25:23;50.65;;;31.48;;
42096;SDS011;27754;45.414;11.084;2023-10-09T09:27:51;55.25;;;32.00;;
42096;SDS011;27754;45.414;11.084;2023-10-09T09:30:23;52.25;;;32.05;;
42096;SDS011;27754;45.414;11.084;2023-10-09T09:33:18;48.88;;;30.73;;
42096;SDS011;27754;45.414;11.084;2023-10-09T09:36:00;47.88;;;30.48;;
42096;SDS011;27754;45.414;11.084;2023-10-09T09:38:32;47.00;;;31.15;;
42096;SDS011;27754;45.414;11.084;2023-10-09T09:41:17;42.70;;;29.10;;
42096;SDS011;27754;45.414;11.084;2023-10-09T09:44:00;49.25;;;31.40;;
42096;SDS011;27754;45.414;11.084;2023-10-09T09:46:34;49.50;;;31.65;;
42096;SDS011;27754;45.414;11.084;2023-10-09T09:49:04;50.45;;;30.38;;
42096;SDS011;27754;45.414;11.084;2023-10-09T09:51:39;52.92;;;31.55;;
42096;SDS011;27754;45.414;11.084;2023-10-09T09:54:09;51.88;;;32.35;;
42096;SDS011;27754;45.414;11.084;2023-10-09T09:56:37;47.47;;;30.92;;
42096;SDS011;27754;45.414;11.084;2023-10-09T09:59:06;53.33;;;31.73;;
42096;SDS011;27754;45.414;11.084;2023-10-09T10:01:39;51.10;;;33.75;;
42096;SDS011;27754;45.414;11.084;2023-10-09T10:04:09;46.88;;;30.05;;
42096;SDS011;27754;45.414;11.084;2023-10-09T10:06:40;49.85;;;28.45;;
42096;SDS011;27754;45.414;11.084;2023-10-09T10:09:33;41.95;;;27.40;;
42096;SDS011;27754;45.414;11.084;2023-10-09T10:12:11;39.47;;;25.40;;
42096;SDS011;27754;45.414;11.084;2023-10-09T10:17:32;39.08;;;25.85;;
42096;SDS011;27754;45.414;11.084;2023-10-09T10:20:31;37.30;;;26.48;;
42096;SDS011;27754;45.414;11.084;2023-10-09T10:23:14;38.72;;;23.35;;
42096;SDS011;27754;45.414;11.084;2023-10-09T10:25:46;41.72;;;23.88;;
42096;SDS011;27754;45.414;11.084;2023-10-09T10:28:17;36.38;;;22.92;;
42096;SDS011;27754;45.414;11.084;2023-10-09T10:31:03;41.33;;;23.15;;
42096;SDS011;27754;45.414;11.084;2023-10-09T10:36:22;30.13;;;20.98;;
42096;SDS011;27754;45.414;11.084;2023-10-09T10:41:37;28.65;;;18.58;;
42096;SDS011;27754;45.414;11.084;2023-10-09T10:44:24;30.20;;;17.50;;
42096;SDS011;27754;45.414;11.084;2023-10-09T10:47:06;35.08;;;19.67;;
42096;SDS011;27754;45.414;11.084;2023-10-09T10:49:52;40.35;;;21.52;;
42096;SDS011;27754;45.414;11.084;2023-10-09T10:52:38;34.05;;;20.67;;
42096;SDS011;27754;45.414;11.084;2023-10-09T10:55:10;35.33;;;21.17;;
42096;SDS011;27754;45.414;11.084;2023-10-09T10:58:19;32.42;;;19.60;;
42096;SDS011;27754;45.414;11.084;2023-10-09T11:01:01;30.33;;;18.27;;
42096;SDS011;27754;45.414;11.084;2023-10-09T11:03:38;32.13;;;16.92;;
42096;SDS011;27754;45.414;11.084;2023-10-09T11:06:28;34.30;;;18.27;;
42096;SDS011;27754;45.414;11.084;2023-10-09T11:09:06;37.60;;;20.80;;
42096;SDS011;27754;45.414;11.084;2023-10-09T11:11:36;32.70;;;19.35;;
42096;SDS011;27754;45.414;11.084;2023-10-09T11:14:13;29.67;;;17.75;;
42096;SDS011;27754;45.414;11.084;2023-10-09T11:16:50;35.00;;;19.38;;
42096;SDS011;27754;45.414;11.084;2023-10-09T11:19:21;39.17;;;20.42;;
42096;SDS011;27754;45.414;11.084;2023-10-09T11:21:55;28.98;;;16.98;;
42096;SDS011;27754;45.414;11.084;2023-10-09T11:24:40;31.45;;;16.73;;
42096;SDS011;27754;45.414;11.084;2023-10-09T11:27:10;33.10;;;17.30;;
42096;SDS011;27754;45.414;11.084;2023-10-09T11:29:48;35.45;;;16.52;;
42096;SDS011;27754;45.414;11.084;2023-10-09T11:32:22;35.40;;;17.58;;
42096;SDS011;27754;45.414;11.084;2023-10-09T11:34:51;32.45;;;15.88;;
42096;SDS011;27754;45.414;11.084;2023-10-09T11:37:36;32.92;;;14.23;;
42096;SDS011;27754;45.414;11.084;2023-10-09T11:43:54;32.95;;;16.25;;
42096;SDS011;27754;45.414;11.084;2023-10-09T11:46:21;27.90;;;12.93;;
42096;SDS011;27754;45.414;11.084;2023-10-09T11:49:24;30.05;;;12.20;;
42096;SDS011;27754;45.414;11.084;2023-10-09T11:52:10;27.08;;;12.65;;
42096;SDS011;27754;45.414;11.084;2023-10-09T11:54:40;29.25;;;12.55;;
42096;SDS011;27754;45.414;11.084;2023-10-09T11:57:10;26.50;;;12.85;;
42096;SDS011;27754;45.414;11.084;2023-10-09T11:59:37;34.03;;;14.35;;
42096;SDS011;27754;45.414;11.084;2023-10-09T12:02:08;29.27;;;14.90;;
42096;SDS011;27754;45.414;11.084;2023-10-09T12:04:39;27.23;;;14.18;;
42096;SDS011;27754;45.414;11.084;2023-10-09T12:07:12;26.77;;;14.10;;
42096;SDS011;27754;45.414;11.084;2023-10-09T12:09:39;29.80;;;14.00;;
42096;SDS011;27754;45.414;11.084;2023-10-09T12:12:07;26.35;;;12.27;;
42096;SDS011;27754;45.414;11.084;2023-10-09T12:14:37;23.80;;;11.18;;
42096;SDS011;27754;45.414;11.084;2023-10-09T12:17:04;28.90;;;12.00;;
42096;SDS011;27754;45.414;11.084;2023-10-09T12:19:33;31.58;;;11.52;;
42096;SDS011;27754;45.414;11.084;2023-10-09T12:22:04;25.20;;;10.75;;
42096;SDS011;27754;45.414;11.084;2023-10-09T12:24:43;27.02;;;9.82;;
42096;SDS011;27754;45.414;11.084;2023-10-09T12:27:09;25.05;;;9.85;;
42096;SDS011;27754;45.414;11.084;2023-10-09T12:29:38;22.85;;;8.73;;
42096;SDS011;27754;45.414;11.084;2023-10-09T12:32:11;19.58;;;9.38;;
42096;SDS011;27754;45.414;11.084;2023-10-09T12:34:39;27.35;;;8.88;;
42096;SDS011;27754;45.414;11.084;2023-10-09T12:37:06;18.67;;;7.95;;
42096;SDS011;27754;45.414;11.084;2023-10-09T12:39:33;23.45;;;8.40;;
42096;SDS011;27754;45.414;11.084;2023-10-09T12:42:00;21.65;;;6.25;;
42096;SDS011;27754;45.414;11.084;2023-10-09T12:44:35;21.55;;;5.28;;
42096;SDS011;27754;45.414;11.084;2023-10-09T12:47:09;17.55;;;4.80;;
42096;SDS011;27754;45.414;11.084;2023-10-09T12:49:38;15.38;;;4.70;;
42096;SDS011;27754;45.414;11.084;2023-10-09T12:52:08;22.63;;;4.63;;
42096;SDS011;27754;45.414;11.084;2023-10-09T12:54:43;17.05;;;5.22;;
42096;SDS011;27754;45.414;11.084;2023-10-09T12:57:12;19.17;;;4.47;;
42096;SDS011;27754;45.414;11.084;2023-10-09T12:59:40;16.80;;;5.00;;
42096;SDS011;27754;45.414;11.084;2023-10-09T13:02:15;21.23;;;5.15;;
42096;SDS011;27754;45.414;11.084;2023-10-09T13:04:57;18.38;;;5.05;;
42096;SDS011;27754;45.414;11.084;2023-10-09T13:07:26;14.88;;;4.38;;
42096;SDS011;27754;45.414;11.084;2023-10-09T13:09:53;23.13;;;4.20;;
42096;SDS011;27754;45.414;11.084;2023-10-09T13:12:39;28.13;;;4.93;;
42096;SDS011;27754;45.414;11.084;2023-10-09T13:15:09;16.38;;;3.88;;
42096;SDS011;27754;45.414;11.084;2023-10-09T13:17:38;16.33;;;4.45;;
42096;SDS011;27754;45.414;11.084;2023-10-09T13:20:05;24.98;;;5.22;;
42096;SDS011;27754;45.414;11.084;2023-10-09T13:22:39;14.68;;;3.63;;
42096;SDS011;27754;45.414;11.084;2023-10-09T13:25:08;16.25;;;3.95;;
42096;SDS011;27754;45.414;11.084;2023-10-09T13:28:00;19.05;;;4.30;;
42096;SDS011;27754;45.414;11.084;2023-10-09T13:30:30;19.15;;;4.90;;
42096;SDS011;27754;45.414;11.084;2023-10-09T13:33:06;23.55;;;4.40;;
42096;SDS011;27754;45.414;11.084;2023-10-09T13:35:34;17.65;;;4.65;;
42096;SDS011;27754;45.414;11.084;2023-10-09T13:38:14;18.55;;;4.35;;
42096;SDS011;27754;45.414;11.084;2023-10-09T13:40:43;19.73;;;5.20;;
42096;SDS011;27754;45.414;11.084;2023-10-09T13:43:10;17.00;;;4.25;;
42096;SDS011;27754;45.414;11.084;2023-10-09T13:45:43;22.08;;;4.57;;
42096;SDS011;27754;45.414;11.084;2023-10-09T13:48:17;16.25;;;4.75;;
42096;SDS011;27754;45.414;11.084;2023-10-09T13:50:44;18.70;;;4.68;;
42096;SDS011;27754;45.414;11.084;2023-10-09T13:53:11;16.88;;;4.88;;
42096;SDS011;27754;45.414;11.084;2023-10-09T13:55:40;15.68;;;4.80;;
42096;SDS011;27754;45.414;11.084;2023-10-09T13:58:10;15.88;;;4.75;;
42096;SDS011;27754;45.414;11.084;2023-10-09T14:00:40;22.83;;;5.40;;
42096;SDS011;27754;45.414;11.084;2023-10-09T14:03:12;22.23;;;4.57;;
42096;SDS011;27754;45.414;11.084;2023-10-09T14:05:40;16.05;;;4.68;;
42096;SDS011;27754;45.414;11.084;2023-10-09T14:08:23;22.75;;;4.32;;
42096;SDS011;27754;45.414;11.084;2023-10-09T14:10:52;18.50;;;4.38;;
42096;SDS011;27754;45.414;11.084;2023-10-09T14:13:21;18.20;;;4.38;;
42096;SDS011;27754;45.414;11.084;2023-10-09T14:15:56;20.42;;;4.82;;
42096;SDS011;27754;45.414;11.084;2023-10-09T14:18:26;26.38;;;5.60;;
42096;SDS011;27754;45.414;11.084;2023-10-09T14:20:56;20.65;;;5.10;;
42096;SDS011;27754;45.414;11.084;2023-10-09T14:23:31;17.27;;;4.47;;
42096;SDS011;27754;45.414;11.084;2023-10-09T14:26:00;28.25;;;5.78;;
42096;SDS011;27754;45.414;11.084;2023-10-09T14:28:28;19.30;;;4.85;;
42096;SDS011;27754;45.414;11.084;2023-10-09T14:30:55;16.85;;;4.90;;
42096;SDS011;27754;45.414;11.084;2023-10-09T14:33:25;27.25;;;5.45;;
42096;SDS011;27754;45.414;11.084;2023-10-09T14:35:54;27.08;;;4.95;;
42096;SDS011;27754;45.414;11.084;2023-10-09T14:38:21;22.90;;;5.22;;
42096;SDS011;27754;45.414;11.084;2023-10-09T14:40:53;24.42;;;5.40;;
42096;SDS011;27754;45.414;11.084;2023-10-09T14:43:26;17.77;;;4.90;;
42096;SDS011;27754;45.414;11.084;2023-10-09T14:45:54;22.02;;;4.93;;
42096;SDS011;27754;45.414;11.084;2023-10-09T14:48:21;27.00;;;5.40;;
42096;SDS011;27754;45.414;11.084;2023-10-09T14:50:53;18.42;;;5.05;;
42096;SDS011;27754;45.414;11.084;2023-10-09T14:53:21;19.48;;;5.00;;
42096;SDS011;27754;45.414;11.084;2023-10-09T14:55:56;21.48;;;5.00;;
42096;SDS011;27754;45.414;11.084;2023-10-09T14:58:23;19.00;;;4.70;;
42096;SDS011;27754;45.414;11.084;2023-10-09T15:00:51;20.63;;;5.75;;
42096;SDS011;27754;45.414;11.084;2023-10-09T15:03:19;22.73;;;5.03;;
42096;SDS011;27754;45.414;11.084;2023-10-09T15:05:46;20.13;;;5.07;;
42096;SDS011;27754;45.414;11.084;2023-10-09T15:08:13;23.23;;;5.75;;
42096;SDS011;27754;45.414;11.084;2023-10-09T15:10:45;21.50;;;5.15;;
42096;SDS011;27754;45.414;11.084;2023-10-09T15:13:17;21.67;;;6.03;;
42096;SDS011;27754;45.414;11.084;2023-10-09T15:15:44;19.08;;;5.70;;
42096;SDS011;27754;45.414;11.084;2023-10-09T15:18:12;22.55;;;5.32;;
42096;SDS011;27754;45.414;11.084;2023-10-09T15:20:39;20.05;;;4.53;;
42096;SDS011;27754;45.414;11.084;2023-10-09T15:23:09;19.45;;;4.70;;
42096;SDS011;27754;45.414;11.084;2023-10-09T15:25:36;20.55;;;5.30;;
42096;SDS011;27754;45.414;11.084;2023-10-09T15:28:08;27.00;;;5.40;;